createdAt,value
2018-05-09T00:00:25.161Z,984.23
2018-05-09T00:01:35.241Z,984.26
2018-05-09T00:02:44.998Z,984.28
2018-05-09T00:03:55.006Z,984.23
2018-05-09T00:05:04.750Z,984.27
2018-05-09T00:06:14.762Z,984.27
2018-05-09T00:07:23.975Z,984.22
2018-05-09T00:08:33.984Z,984.27
2018-05-09T00:09:44.003Z,984.24
2018-05-09T00:10:54.023Z,984.26
2018-05-09T00:12:04.084Z,984.26
2018-05-09T00:13:14.027Z,984.27
2018-05-09T00:14:24.034Z,984.27
2018-05-09T00:15:34.047Z,984.29
2018-05-09T00:16:43.999Z,984.26
2018-05-09T00:17:53.745Z,984.27
2018-05-09T00:19:03.759Z,984.25
2018-05-09T00:20:13.784Z,984.28
2018-05-09T00:21:23.532Z,984.33
2018-05-09T00:22:33.543Z,984.33
2018-05-09T00:23:43.624Z,984.33
2018-05-09T00:24:53.094Z,984.41
2018-05-09T00:26:02.303Z,984.37
2018-05-09T00:27:12.326Z,984.36
2018-05-09T00:28:22.066Z,984.33
2018-05-09T00:29:31.810Z,984.33
2018-05-09T00:30:41.821Z,984.36
2018-05-09T00:31:51.834Z,984.34
2018-05-09T00:33:01.859Z,984.38
2018-05-09T00:34:11.605Z,984.43
2018-05-09T00:35:21.616Z,984.36
2018-05-09T00:36:31.115Z,984.4
2018-05-09T00:37:41.126Z,984.41
2018-05-09T00:38:50.867Z,984.42
2018-05-09T00:40:00.879Z,984.45
2018-05-09T00:41:10.086Z,984.46
2018-05-09T00:42:20.102Z,984.47
2018-05-09T00:43:29.582Z,984.46
2018-05-09T00:44:39.593Z,984.5
2018-05-09T00:45:49.607Z,984.48
2018-05-09T00:46:58.966Z,984.44
2018-05-09T00:48:09.010Z,984.52
2018-05-09T00:49:18.769Z,984.51
2018-05-09T00:50:28.778Z,984.52
2018-05-09T00:51:38.805Z,984.51
2018-05-09T00:52:48.815Z,984.51
2018-05-09T00:53:58.560Z,984.5
2018-05-09T00:55:08.037Z,984.53
2018-05-09T00:56:17.786Z,984.49
2018-05-09T00:57:27.795Z,984.45
2018-05-09T00:58:37.803Z,984.45
2018-05-09T00:59:47.811Z,984.41
2018-05-09T01:00:57.824Z,984.4
2018-05-09T01:02:07.304Z,984.44
2018-05-09T01:03:17.314Z,984.42
2018-05-09T01:04:27.326Z,984.45
2018-05-09T01:05:37.343Z,984.47
2018-05-09T01:06:46.562Z,984.48
2018-05-09T01:07:56.313Z,984.49
2018-05-09T01:09:06.053Z,984.49
2018-05-09T01:10:15.802Z,984.47
2018-05-09T01:11:25.556Z,984.46
2018-05-09T01:12:35.562Z,984.49
2018-05-09T01:13:45.318Z,984.54
2018-05-09T01:14:55.072Z,984.52
2018-05-09T01:16:04.812Z,984.54
2018-05-09T01:17:14.023Z,984.53
2018-05-09T01:18:24.036Z,984.54
2018-05-09T01:19:34.049Z,984.54
2018-05-09T01:20:44.061Z,984.52
2018-05-09T01:21:54.074Z,984.51
2018-05-09T01:23:03.813Z,984.51
2018-05-09T01:24:13.018Z,984.47
2018-05-09T01:25:22.234Z,984.45
2018-05-09T01:26:32.248Z,984.46
2018-05-09T01:27:41.733Z,984.45
2018-05-09T01:28:51.471Z,984.43
2018-05-09T01:30:01.493Z,984.46
2018-05-09T01:31:10.707Z,984.47
2018-05-09T01:32:20.451Z,984.47
2018-05-09T01:33:30.473Z,984.45
2018-05-09T01:34:40.480Z,984.52
2018-05-09T01:35:50.578Z,984.49
2018-05-09T01:37:00.321Z,984.49
2018-05-09T01:38:09.809Z,984.51
2018-05-09T01:39:19.828Z,984.49
2018-05-09T01:40:29.304Z,984.51
2018-05-09T01:41:39.050Z,984.52
2018-05-09T01:42:48.808Z,984.51
2018-05-09T01:43:58.275Z,984.52
2018-05-09T01:45:08.292Z,984.53
2018-05-09T01:46:18.307Z,984.51
2018-05-09T01:47:28.322Z,984.52
2018-05-09T01:48:38.338Z,984.49
2018-05-09T01:49:48.360Z,984.53
2018-05-09T01:50:58.384Z,984.54
2018-05-09T01:52:08.137Z,984.51
2018-05-09T01:53:17.878Z,984.51
2018-05-09T01:54:27.893Z,984.48
2018-05-09T01:55:37.645Z,984.47
2018-05-09T01:56:47.739Z,984.51
2018-05-09T01:57:57.763Z,984.48
2018-05-09T01:59:07.778Z,984.52
2018-05-09T02:00:17.526Z,984.47
2018-05-09T02:01:27.273Z,984.47
2018-05-09T02:02:37.017Z,984.44
2018-05-09T02:03:46.497Z,984.48
2018-05-09T02:04:56.510Z,984.45
2018-05-09T02:06:06.273Z,984.42
2018-05-09T02:07:16.672Z,984.44
2018-05-09T02:08:26.679Z,984.51
2018-05-09T02:09:36.692Z,984.49
2018-05-09T02:10:46.700Z,984.51
2018-05-09T02:11:56.707Z,984.53
2018-05-09T02:13:06.724Z,984.53
2018-05-09T02:14:16.733Z,984.55
2018-05-09T02:15:26.482Z,984.53
2018-05-09T02:16:35.686Z,984.59
2018-05-09T02:17:45.162Z,984.56
2018-05-09T02:18:54.905Z,984.55
2018-05-09T02:20:04.934Z,984.54
2018-05-09T02:21:14.943Z,984.53
2018-05-09T02:22:24.695Z,984.53
2018-05-09T02:23:34.734Z,984.54
2018-05-09T02:24:44.740Z,984.55
2018-05-09T02:25:54.545Z,984.6
2018-05-09T02:27:04.294Z,984.6
2018-05-09T02:28:14.322Z,984.62
2018-05-09T02:29:24.338Z,984.65
2018-05-09T02:30:34.358Z,984.66
2018-05-09T02:31:43.892Z,984.69
2018-05-09T02:32:54.007Z,984.69
2018-05-09T02:34:03.488Z,984.69
2018-05-09T02:35:13.521Z,984.66
2018-05-09T02:36:23.543Z,984.65
2018-05-09T02:37:33.289Z,984.72
2018-05-09T02:38:42.759Z,984.72
2018-05-09T02:39:52.771Z,984.7
2018-05-09T02:41:02.248Z,984.72
2018-05-09T02:42:11.988Z,984.67
2018-05-09T02:43:22.003Z,984.72
2018-05-09T02:44:31.764Z,984.71
2018-05-09T02:45:40.985Z,984.68
2018-05-09T02:46:50.735Z,984.7
2018-05-09T02:48:00.749Z,984.7
2018-05-09T02:49:10.773Z,984.69
2018-05-09T02:50:20.514Z,984.7
2018-05-09T02:51:30.528Z,984.8
2018-05-09T02:52:40.672Z,984.75
2018-05-09T02:53:50.680Z,984.77
2018-05-09T02:55:00.586Z,984.77
2018-05-09T02:56:10.344Z,984.71
2018-05-09T02:57:20.366Z,984.72
2018-05-09T02:58:30.111Z,984.75
2018-05-09T02:59:40.135Z,984.66
2018-05-09T03:03:21.961Z,984.72
2018-05-09T03:04:31.708Z,984.73
2018-05-09T03:05:41.739Z,984.73
2018-05-09T03:06:50.956Z,984.75
2018-05-09T03:07:59.896Z,984.74
2018-05-09T03:09:09.945Z,984.82
2018-05-09T03:10:19.962Z,984.82
2018-05-09T03:11:29.519Z,984.7
2018-05-09T03:12:39.531Z,984.68
2018-05-09T03:13:49.288Z,984.75
2018-05-09T03:14:59.036Z,984.7
2018-05-09T03:16:08.514Z,984.66
2018-05-09T03:17:17.990Z,984.72
2018-05-09T03:18:28.007Z,984.62
2018-05-09T03:19:38.022Z,984.62
2018-05-09T03:20:48.034Z,984.79
2018-05-09T03:21:58.036Z,984.78
2018-05-09T03:23:07.781Z,984.72
2018-05-09T03:24:17.789Z,984.65
2018-05-09T03:25:26.996Z,984.71
2018-05-09T03:26:37.007Z,984.8
2018-05-09T03:27:47.045Z,984.72
2018-05-09T03:28:56.788Z,984.71
2018-05-09T03:30:06.263Z,984.67
2018-05-09T03:31:16.025Z,984.69
2018-05-09T03:32:26.040Z,984.69
2018-05-09T03:33:36.064Z,984.72
2018-05-09T03:34:45.809Z,984.62
2018-05-09T03:35:55.287Z,984.71
2018-05-09T03:37:05.302Z,984.76
2018-05-09T03:38:15.312Z,984.62
2018-05-09T03:39:25.317Z,984.67
2018-05-09T03:40:34.531Z,984.62
2018-05-09T03:41:43.736Z,984.54
2018-05-09T03:42:53.753Z,984.68
2018-05-09T03:44:03.491Z,984.48
2018-05-09T03:45:13.495Z,984.63
2018-05-09T03:46:23.237Z,984.54
2018-05-09T03:47:33.250Z,984.63
2018-05-09T03:48:42.721Z,984.62
2018-05-09T03:49:52.460Z,984.59
2018-05-09T03:51:02.201Z,984.64
2018-05-09T03:52:11.939Z,984.61
2018-05-09T03:53:22.044Z,984.69
2018-05-09T03:54:32.099Z,984.72
2018-05-09T03:55:42.111Z,984.55
2018-05-09T03:56:52.128Z,984.67
2018-05-09T03:58:01.869Z,984.68
2018-05-09T03:59:11.883Z,984.69
2018-05-09T04:00:21.897Z,984.69
2018-05-09T04:01:31.902Z,984.72
2018-05-09T04:02:41.648Z,984.82
2018-05-09T04:03:51.409Z,984.78
2018-05-09T04:05:01.421Z,984.77
2018-05-09T04:06:10.624Z,984.81
2018-05-09T04:07:20.633Z,984.84
2018-05-09T04:08:30.641Z,984.81
2018-05-09T04:09:40.386Z,984.81
2018-05-09T04:10:49.591Z,984.89
2018-05-09T04:11:59.610Z,984.79
2018-05-09T04:13:09.439Z,984.89
2018-05-09T04:14:19.496Z,984.91
2018-05-09T04:15:28.970Z,984.9
2018-05-09T04:16:38.977Z,984.87
2018-05-09T04:17:48.995Z,984.87
2018-05-09T04:18:59.009Z,984.96
2018-05-09T04:20:09.016Z,984.89
2018-05-09T04:21:18.222Z,984.99
2018-05-09T04:22:27.712Z,984.88
2018-05-09T04:23:37.725Z,984.93
2018-05-09T04:24:47.736Z,984.89
2018-05-09T04:25:57.756Z,984.89
2018-05-09T04:27:07.496Z,984.88
2018-05-09T04:28:17.630Z,984.89
2018-05-09T04:29:27.224Z,984.91
2018-05-09T04:30:37.293Z,984.91
2018-05-09T04:31:47.034Z,984.89
2018-05-09T04:32:57.050Z,984.87
2018-05-09T04:34:07.088Z,984.84
2018-05-09T04:35:16.836Z,984.87
2018-05-09T04:36:26.853Z,984.76
2018-05-09T04:37:36.871Z,984.81
2018-05-09T04:38:46.638Z,984.82
2018-05-09T04:39:56.119Z,984.88
2018-05-09T04:41:05.881Z,984.78
2018-05-09T04:42:15.708Z,984.81
2018-05-09T04:43:25.184Z,984.87
2018-05-09T04:44:34.925Z,984.83
2018-05-09T04:45:44.668Z,984.81
2018-05-09T04:46:54.415Z,984.81
2018-05-09T04:48:04.164Z,984.77
2018-05-09T04:49:14.017Z,984.77
2018-05-09T04:50:23.805Z,984.8
2018-05-09T04:51:33.543Z,984.8
2018-05-09T04:52:43.560Z,984.79
2018-05-09T04:53:53.578Z,984.78
2018-05-09T04:55:03.321Z,984.84
2018-05-09T04:56:12.793Z,984.87
2018-05-09T04:57:22.532Z,984.85
2018-05-09T04:58:32.538Z,984.79
2018-05-09T04:59:42.282Z,984.85
2018-05-09T05:00:52.307Z,984.82
2018-05-09T05:02:02.327Z,984.77
2018-05-09T05:03:12.078Z,984.82
2018-05-09T05:04:22.086Z,984.79
2018-05-09T05:05:32.099Z,984.76
2018-05-09T05:06:41.845Z,984.8
2018-05-09T05:07:51.052Z,984.8
2018-05-09T05:09:01.062Z,984.78
2018-05-09T05:10:11.075Z,984.82
2018-05-09T05:11:20.819Z,984.79
2018-05-09T05:12:30.560Z,984.8
2018-05-09T05:13:40.306Z,984.77
2018-05-09T05:14:50.047Z,984.79
2018-05-09T05:16:00.067Z,984.81
2018-05-09T05:17:10.087Z,984.82
2018-05-09T05:18:19.580Z,984.8
2018-05-09T05:19:29.325Z,984.84
2018-05-09T05:20:39.332Z,984.81
2018-05-09T05:21:49.078Z,984.88
2018-05-09T05:22:58.828Z,984.84
2018-05-09T05:24:08.597Z,984.83
2018-05-09T05:25:18.342Z,984.83
2018-05-09T05:26:27.825Z,984.88
2018-05-09T05:27:37.570Z,984.8
2018-05-09T05:28:47.309Z,984.8
2018-05-09T05:29:57.054Z,984.87
2018-05-09T05:31:06.807Z,984.84
2018-05-09T05:32:16.311Z,984.85
2018-05-09T05:33:26.329Z,984.86
2018-05-09T05:34:35.807Z,984.84
2018-05-09T05:35:45.823Z,984.83
2018-05-09T05:36:55.839Z,984.85
2018-05-09T05:38:05.586Z,984.84
2018-05-09T05:39:15.328Z,984.83
2018-05-09T05:40:24.804Z,984.85
2018-05-09T05:41:34.815Z,984.88
2018-05-09T05:42:44.838Z,984.85
2018-05-09T05:43:54.045Z,984.86
2018-05-09T05:45:03.912Z,984.85
2018-05-09T05:46:14.381Z,984.85
2018-05-09T05:47:24.392Z,984.84
2018-05-09T05:48:34.425Z,984.84
2018-05-09T05:49:43.926Z,984.84
2018-05-09T05:50:53.937Z,984.82
2018-05-09T05:52:03.961Z,984.82
2018-05-09T05:53:13.991Z,984.79
2018-05-09T05:54:23.472Z,984.84
2018-05-09T05:55:33.221Z,984.78
2018-05-09T05:56:43.235Z,984.81
2018-05-09T05:57:53.251Z,984.85
2018-05-09T05:59:03.260Z,984.88
2018-05-09T06:00:13.000Z,984.87
2018-05-09T06:01:22.745Z,984.86
2018-05-09T06:02:32.747Z,984.86
2018-05-09T06:03:42.494Z,984.86
2018-05-09T06:04:52.246Z,984.82
2018-05-09T06:06:01.730Z,984.83
2018-05-09T06:07:11.474Z,984.85
2018-05-09T06:08:21.490Z,984.85
2018-05-09T06:09:30.699Z,984.82
2018-05-09T06:10:40.445Z,984.86
2018-05-09T06:11:50.461Z,984.84
2018-05-09T06:13:00.477Z,984.83
2018-05-09T06:14:10.500Z,984.83
2018-05-09T06:15:20.518Z,984.8
2018-05-09T06:16:30.260Z,984.87
2018-05-09T06:17:40.274Z,984.8
2018-05-09T06:18:50.288Z,984.84
2018-05-09T06:20:00.306Z,984.86
2018-05-09T06:21:10.171Z,984.84
2018-05-09T06:22:20.200Z,984.78
2018-05-09T06:23:29.420Z,984.79
2018-05-09T06:24:39.162Z,984.79
2018-05-09T06:25:49.178Z,984.8
2018-05-09T06:26:58.709Z,984.81
2018-05-09T06:28:07.923Z,984.8
2018-05-09T06:29:17.950Z,984.83
2018-05-09T06:30:27.975Z,984.77
2018-05-09T06:31:37.186Z,984.8
2018-05-09T06:32:46.664Z,984.81
2018-05-09T06:33:56.409Z,984.82
2018-05-09T06:35:06.426Z,984.8
2018-05-09T06:36:16.184Z,984.77
2018-05-09T06:37:26.196Z,984.81
2018-05-09T06:38:36.221Z,984.85
2018-05-09T06:39:45.794Z,984.82
2018-05-09T06:40:55.807Z,984.87
2018-05-09T06:42:05.827Z,984.86
2018-05-09T06:43:15.577Z,984.88
2018-05-09T06:44:25.656Z,984.82
2018-05-09T06:45:35.241Z,984.84
2018-05-09T06:46:45.267Z,984.77
2018-05-09T06:47:55.278Z,984.79
2018-05-09T06:49:04.757Z,984.75
2018-05-09T06:50:14.499Z,984.76
2018-05-09T06:51:24.536Z,984.79
2018-05-09T06:52:34.552Z,984.76
2018-05-09T06:53:44.295Z,984.72
2018-05-09T06:54:54.040Z,984.8
2018-05-09T06:56:04.053Z,984.77
2018-05-09T06:57:14.065Z,984.78
2018-05-09T06:58:24.076Z,984.81
2018-05-09T06:59:33.837Z,984.77
2018-05-09T07:00:43.848Z,984.8
2018-05-09T07:01:53.967Z,984.81
2018-05-09T07:03:03.987Z,984.81
2018-05-09T07:04:14.039Z,984.86
2018-05-09T07:05:23.848Z,984.86
2018-05-09T07:06:33.535Z,984.85
2018-05-09T07:07:44.609Z,984.86
2018-05-09T07:08:54.617Z,984.89
2018-05-09T07:10:04.632Z,984.89
2018-05-09T07:11:14.122Z,984.89
2018-05-09T07:12:23.865Z,984.87
2018-05-09T07:13:33.717Z,984.81
2018-05-09T07:14:43.729Z,984.86
2018-05-09T07:15:53.746Z,984.86
2018-05-09T07:17:03.763Z,984.85
2018-05-09T07:18:13.560Z,984.85
2018-05-09T07:19:23.159Z,984.85
2018-05-09T07:20:33.229Z,984.81
2018-05-09T07:21:43.247Z,984.82
2018-05-09T07:22:52.997Z,984.86
2018-05-09T07:24:03.014Z,984.87
2018-05-09T07:25:13.041Z,984.85
2018-05-09T07:26:22.345Z,984.85
2018-05-09T07:27:31.561Z,984.86
2018-05-09T07:28:41.578Z,984.83
2018-05-09T07:29:51.321Z,984.82
2018-05-09T07:31:00.905Z,984.84
2018-05-09T07:32:10.385Z,984.87
2018-05-09T07:33:19.595Z,984.82
2018-05-09T07:34:29.074Z,984.84
2018-05-09T07:35:39.094Z,984.79
2018-05-09T07:36:49.175Z,984.75
2018-05-09T07:37:58.658Z,984.72
2018-05-09T07:39:08.151Z,984.67
2018-05-09T07:40:18.169Z,984.7
2018-05-09T07:41:27.655Z,984.68
2018-05-09T07:42:37.669Z,984.72
2018-05-09T07:43:47.429Z,984.68
2018-05-09T07:44:57.442Z,984.74
2018-05-09T07:46:07.210Z,984.73
2018-05-09T07:47:16.690Z,984.73
2018-05-09T07:48:26.702Z,984.75
2018-05-09T07:49:36.719Z,984.74
2018-05-09T07:50:46.199Z,984.72
2018-05-09T07:51:56.216Z,984.7
2018-05-09T07:53:06.230Z,984.69
2018-05-09T07:54:16.254Z,984.69
2018-05-09T07:55:26.097Z,984.68
2018-05-09T07:56:36.481Z,984.68
2018-05-09T07:57:46.251Z,984.68
2018-05-09T07:58:55.992Z,984.66
2018-05-09T08:00:05.739Z,984.65
2018-05-09T08:01:15.762Z,984.63
2018-05-09T08:02:25.242Z,984.65
2018-05-09T08:03:35.011Z,984.65
2018-05-09T08:04:45.077Z,984.66
2018-05-09T08:05:54.610Z,984.67
2018-05-09T08:07:04.570Z,984.66
2018-05-09T08:08:14.592Z,984.72
2018-05-09T08:09:24.637Z,984.69
2018-05-09T08:10:34.394Z,984.66
2018-05-09T08:11:44.461Z,984.67
2018-05-09T08:12:54.317Z,984.66
2018-05-09T08:14:04.138Z,984.63
2018-05-09T08:15:13.883Z,984.59
2018-05-09T08:16:23.629Z,984.62
2018-05-09T08:17:33.647Z,984.63
2018-05-09T08:18:43.132Z,984.63
2018-05-09T08:19:53.149Z,984.62
2018-05-09T08:21:02.650Z,984.59
2018-05-09T08:22:12.137Z,984.51
2018-05-09T08:23:22.002Z,984.58
2018-05-09T08:24:31.751Z,984.59
2018-05-09T08:25:41.498Z,984.56
2018-05-09T08:26:51.511Z,984.48
2018-05-09T08:28:00.999Z,984.52
2018-05-09T08:29:11.013Z,984.58
2018-05-09T08:30:21.072Z,984.51
2018-05-09T08:31:30.967Z,984.52
2018-05-09T08:32:40.984Z,984.54
2018-05-09T08:33:51.008Z,984.53
2018-05-09T08:35:01.029Z,984.55
2018-05-09T08:36:11.076Z,984.47
2018-05-09T08:37:21.485Z,984.43
2018-05-09T08:38:31.572Z,984.46
2018-05-09T08:39:41.337Z,984.44
2018-05-09T08:40:51.086Z,984.4
2018-05-09T08:42:01.128Z,984.41
2018-05-09T08:43:10.657Z,984.4
2018-05-09T08:44:20.804Z,984.37
2018-05-09T08:45:30.565Z,984.33
2018-05-09T08:46:40.315Z,984.28
2018-05-09T08:47:50.080Z,984.35
2018-05-09T08:48:59.557Z,984.27
2018-05-09T08:50:09.303Z,984.27
2018-05-09T08:51:19.320Z,984.29
2018-05-09T08:52:28.810Z,984.31
2018-05-09T08:53:38.027Z,984.31
2018-05-09T08:54:48.058Z,984.35
2018-05-09T08:55:58.080Z,984.3
2018-05-09T08:57:08.100Z,984.34
2018-05-09T08:58:17.851Z,984.38
2018-05-09T08:59:27.875Z,984.42
2018-05-09T09:00:37.620Z,984.45
2018-05-09T09:01:47.647Z,984.44
2018-05-09T09:02:57.393Z,984.33
2018-05-09T09:04:07.706Z,984.32
2018-05-09T09:05:18.050Z,984.4
2018-05-09T09:06:28.158Z,984.3
2018-05-09T09:07:38.305Z,984.26
2018-05-09T09:08:48.330Z,984.32
2018-05-09T09:09:57.820Z,984.26
2018-05-09T09:11:07.569Z,984.38
2018-05-09T09:12:17.049Z,984.23
2018-05-09T09:13:27.065Z,984.31
2018-05-09T09:14:37.178Z,984.42
2018-05-09T09:15:46.664Z,984.36
2018-05-09T09:16:56.146Z,984.34
2018-05-09T09:18:05.901Z,984.37
2018-05-09T09:19:15.931Z,984.39
2018-05-09T09:20:25.735Z,984.36
2018-05-09T09:21:35.479Z,984.33
2018-05-09T09:22:45.230Z,984.26
2018-05-09T09:23:55.253Z,984.22
2018-05-09T09:25:05.003Z,984.27
2018-05-09T09:26:14.485Z,984.28
2018-05-09T09:27:24.600Z,984.23
2018-05-09T09:28:34.085Z,984.34
2018-05-09T09:29:43.580Z,984.37
2018-05-09T09:30:53.598Z,984.25
2018-05-09T09:32:03.085Z,984.34
2018-05-09T09:33:12.838Z,984.31
2018-05-09T09:34:22.863Z,984.31
2018-05-09T09:35:32.349Z,984.25
2018-05-09T09:36:42.375Z,984.21
2018-05-09T09:37:52.392Z,984.24
2018-05-09T09:39:02.237Z,984.23
2018-05-09T09:40:12.000Z,984.22
2018-05-09T09:41:21.517Z,984.31
2018-05-09T09:42:31.703Z,984.26
2018-05-09T09:43:40.654Z,984.25
2018-05-09T09:44:50.670Z,984.29
2018-05-09T09:46:00.691Z,984.3
2018-05-09T09:47:10.180Z,984.2
2018-05-09T09:48:19.665Z,984.09
2018-05-09T09:49:29.432Z,984.1
2018-05-09T09:50:39.542Z,984.16
2018-05-09T09:51:49.880Z,984.21
2018-05-09T09:52:59.917Z,984.19
2018-05-09T09:54:09.938Z,984.24
2018-05-09T09:55:19.692Z,984.15
2018-05-09T09:56:29.773Z,984.17
2018-05-09T09:57:39.527Z,984.15
2018-05-09T09:58:49.289Z,984.21
2018-05-09T09:59:59.037Z,984.18
2018-05-09T10:01:08.539Z,984.24
2018-05-09T10:02:18.036Z,984.14
2018-05-09T10:03:28.083Z,984.11
2018-05-09T10:04:37.570Z,984.15
2018-05-09T10:05:47.327Z,984.19
2018-05-09T10:06:57.343Z,984.14
2018-05-09T10:08:07.165Z,984.18
2018-05-09T10:09:17.093Z,984.22
2018-05-09T10:10:26.845Z,984.21
2018-05-09T10:11:36.874Z,984.18
2018-05-09T10:12:46.628Z,984.22
2018-05-09T10:13:56.657Z,984.21
2018-05-09T10:15:06.676Z,984.16
2018-05-09T10:16:16.247Z,984.18
2018-05-09T10:17:26.343Z,984.09
2018-05-09T10:18:35.847Z,984.13
2018-05-09T10:19:45.325Z,984.19
2018-05-09T10:20:55.101Z,984.19
2018-05-09T10:22:04.851Z,984.24
2018-05-09T10:23:14.938Z,984.17
2018-05-09T10:24:25.414Z,984.2
2018-05-09T10:25:34.681Z,984.2
2018-05-09T10:26:44.168Z,984.21
2018-05-09T10:27:53.653Z,984.21
2018-05-09T10:29:03.408Z,984.23
2018-05-09T10:30:12.892Z,984.21
2018-05-09T10:31:22.955Z,984.17
2018-05-09T10:32:33.508Z,984.28
2018-05-09T10:33:43.253Z,984.25
2018-05-09T10:34:52.468Z,984.19
2018-05-09T10:36:01.961Z,984.15
2018-05-09T10:37:11.820Z,984.14
2018-05-09T10:38:21.850Z,984.18
2018-05-09T10:39:31.341Z,984.2
2018-05-09T10:40:41.176Z,984.15
2018-05-09T10:41:50.658Z,984.22
2018-05-09T10:43:00.410Z,984.11
2018-05-09T10:44:09.622Z,984.2
2018-05-09T10:45:19.645Z,984.14
2018-05-09T10:46:29.408Z,984.1
2018-05-09T10:47:39.515Z,984.12
2018-05-09T10:48:49.005Z,984.2
2018-05-09T10:49:59.028Z,984.19
2018-05-09T10:51:08.780Z,984.13
2018-05-09T10:52:18.528Z,984.11
2018-05-09T10:53:28.277Z,984.11
2018-05-09T10:54:38.033Z,984.06
2018-05-09T10:55:47.785Z,984.09
2018-05-09T10:56:57.814Z,984.1
2018-05-09T10:58:07.886Z,984.14
2018-05-09T10:59:17.100Z,984.21
2018-05-09T11:00:26.858Z,984.16
2018-05-09T11:01:36.354Z,984.12
2018-05-09T11:02:46.389Z,984.07
2018-05-09T11:03:56.416Z,984.12
2018-05-09T11:05:06.196Z,984.07
2018-05-09T11:06:15.866Z,984.06
2018-05-09T11:07:25.614Z,984.12
2018-05-09T11:08:35.638Z,984.11
2018-05-09T11:09:45.385Z,984.02
2018-05-09T11:10:55.134Z,984.05
2018-05-09T11:12:05.000Z,983.97
2018-05-09T11:13:14.754Z,984.02
2018-05-09T11:14:24.504Z,984.04
2018-05-09T11:15:34.530Z,984.06
2018-05-09T11:16:44.546Z,984.04
2018-05-09T11:17:54.566Z,984
2018-05-09T11:19:04.318Z,983.95
2018-05-09T11:20:13.533Z,983.99
2018-05-09T11:21:23.295Z,983.91
2018-05-09T11:22:33.308Z,983.92
2018-05-09T11:23:43.060Z,984
2018-05-09T11:24:52.546Z,984.05
2018-05-09T11:26:02.313Z,984.09
2018-05-09T11:27:12.332Z,984.13
2018-05-09T11:28:22.085Z,984.13
2018-05-09T11:29:31.300Z,984.19
2018-05-09T11:30:41.053Z,984.18
2018-05-09T11:31:50.805Z,984.18
2018-05-09T11:33:00.848Z,984.18
2018-05-09T11:34:10.599Z,984.08
2018-05-09T11:35:20.090Z,984.05
2018-05-09T11:36:30.114Z,984.07
2018-05-09T11:37:40.148Z,984.04
2018-05-09T11:38:49.643Z,983.97
2018-05-09T11:39:59.397Z,984.03
2018-05-09T11:41:08.885Z,984.06
2018-05-09T11:42:18.930Z,984.05
2018-05-09T11:43:28.956Z,983.98
2018-05-09T11:44:38.712Z,983.95
2018-05-09T11:45:48.892Z,984.01
2018-05-09T11:46:58.486Z,984
2018-05-09T11:48:08.258Z,984.03
2018-05-09T11:49:18.023Z,983.89
2018-05-09T11:50:27.519Z,983.99
2018-05-09T11:51:37.275Z,984.11
2018-05-09T11:52:47.037Z,983.98
2018-05-09T11:53:56.801Z,983.99
2018-05-09T11:55:06.852Z,983.83
2018-05-09T11:56:16.075Z,983.81
2018-05-09T11:57:26.101Z,983.87
2018-05-09T11:58:36.184Z,983.83
2018-05-09T11:59:45.410Z,983.9
2018-05-09T12:00:55.176Z,983.85
2018-05-09T12:02:05.040Z,983.83
2018-05-09T12:03:15.272Z,983.82
2018-05-09T12:04:25.330Z,983.78
2018-05-09T12:05:35.374Z,983.84
2018-05-09T12:06:45.133Z,983.79
2018-05-09T12:07:55.168Z,983.8
2018-05-09T12:09:04.942Z,983.83
2018-05-09T12:10:15.045Z,983.78
2018-05-09T12:11:25.251Z,983.74
2018-05-09T12:12:34.754Z,983.74
2018-05-09T12:13:44.848Z,983.71
2018-05-09T12:14:54.617Z,983.67
2018-05-09T12:16:04.119Z,983.8
2018-05-09T12:17:14.146Z,983.86
2018-05-09T12:18:24.189Z,983.77
2018-05-09T12:19:33.679Z,983.82
2018-05-09T12:20:43.706Z,983.7
2018-05-09T12:21:53.734Z,983.72
2018-05-09T12:23:03.229Z,983.72
2018-05-09T12:24:13.017Z,983.65
2018-05-09T12:25:23.057Z,983.71
2018-05-09T12:26:33.094Z,983.74
2018-05-09T12:27:43.132Z,983.72
2018-05-09T12:28:53.163Z,983.77
2018-05-09T12:30:03.223Z,983.71
2018-05-09T12:31:12.996Z,983.78
2018-05-09T12:32:23.050Z,983.71
2018-05-09T12:33:32.820Z,983.72
2018-05-09T12:34:42.587Z,983.71
2018-05-09T12:35:52.348Z,983.74
2018-05-09T12:37:02.124Z,983.72
2018-05-09T12:38:11.894Z,983.76
2018-05-09T12:39:21.934Z,983.68
2018-05-09T12:40:31.973Z,983.72
2018-05-09T12:41:41.739Z,983.75
2018-05-09T12:42:51.232Z,983.68
2018-05-09T12:44:00.995Z,983.7
2018-05-09T12:45:10.321Z,983.67
2018-05-09T12:46:20.357Z,983.68
2018-05-09T12:47:29.848Z,983.73
2018-05-09T12:48:39.724Z,983.69
2018-05-09T12:49:50.395Z,983.63
2018-05-09T12:51:00.153Z,983.75
2018-05-09T12:52:10.189Z,983.48
2018-05-09T12:53:19.684Z,983.78
2018-05-09T12:54:29.753Z,983.78
2018-05-09T12:55:39.787Z,983.77
2018-05-09T12:56:49.825Z,983.69
2018-05-09T12:57:59.859Z,983.82
2018-05-09T12:59:09.886Z,983.7
2018-05-09T13:00:19.925Z,983.81
2018-05-09T13:01:29.990Z,983.67
2018-05-09T13:02:39.498Z,983.69
2018-05-09T13:03:49.262Z,983.89
2018-05-09T13:04:59.022Z,983.72
2018-05-09T13:06:08.522Z,983.68
2018-05-09T13:07:17.789Z,983.82
2018-05-09T13:08:27.903Z,983.83
2018-05-09T13:09:37.929Z,983.84
2018-05-09T13:10:47.966Z,983.84
2018-05-09T13:11:58.007Z,983.79
2018-05-09T13:13:07.548Z,983.74
2018-05-09T13:14:17.420Z,983.82
2018-05-09T13:15:27.182Z,983.88
2018-05-09T13:16:37.215Z,983.21
2018-05-09T13:17:46.708Z,983.78
2018-05-09T13:18:56.202Z,983.81
2018-05-09T13:20:06.235Z,983.85
2018-05-09T13:21:16.000Z,983.86
2018-05-09T13:22:26.044Z,983.78
2018-05-09T13:23:36.091Z,983.63
2018-05-09T13:24:45.867Z,983.73
2018-05-09T13:25:55.934Z,983.74
2018-05-09T13:27:05.588Z,983.71
2018-05-09T13:28:15.621Z,983.89
2018-05-09T13:29:25.704Z,983.17
2018-05-09T13:30:35.817Z,983.74
2018-05-09T13:31:45.945Z,983.98
2018-05-09T13:32:55.736Z,983.07
2018-05-09T13:34:05.252Z,982.98
2018-05-09T13:35:15.288Z,983.14
2018-05-09T13:36:25.333Z,983.81
2018-05-09T13:37:35.472Z,983.82
2018-05-09T13:38:45.239Z,983.8
2018-05-09T13:39:55.274Z,983.63
2018-05-09T13:41:05.482Z,983.05
2018-05-09T13:42:15.508Z,983.66
2018-05-09T13:43:25.276Z,982.87
2018-05-09T13:44:35.310Z,983.01
2018-05-09T13:45:45.070Z,983.05
2018-05-09T13:46:54.856Z,983.01
2018-05-09T13:48:04.344Z,983.63
2018-05-09T13:49:13.841Z,983.11
2018-05-09T13:50:23.911Z,983.52
2018-05-09T13:51:33.687Z,983.57
2018-05-09T13:52:43.718Z,982.74
2018-05-09T13:53:53.629Z,982.76
2018-05-09T13:55:03.868Z,982.97
2018-05-09T13:56:13.365Z,982.82
2018-05-09T13:57:23.119Z,982.94
2018-05-09T13:58:33.145Z,983.23
2018-05-09T13:59:43.183Z,983.91
2018-05-09T14:00:53.071Z,983.92
2018-05-09T14:02:02.832Z,983.91
2018-05-09T14:03:12.322Z,982.74
2018-05-09T14:04:22.349Z,982.76
2018-05-09T14:05:32.383Z,983.78
2018-05-09T14:06:42.138Z,984.2
2018-05-09T14:07:52.162Z,984.04
2018-05-09T14:09:01.657Z,983.96
2018-05-09T14:10:11.750Z,983.06
2018-05-09T14:11:21.778Z,984.13
2018-05-09T14:12:31.553Z,982.76
2018-05-09T14:13:41.310Z,984.14
2018-05-09T14:14:51.078Z,983.63
2018-05-09T14:16:01.109Z,983.95
2018-05-09T14:17:10.880Z,983.93
2018-05-09T14:18:21.012Z,983.75
2018-05-09T14:19:31.065Z,983.72
2018-05-09T14:20:41.095Z,983.92
2018-05-09T14:21:51.132Z,984.08
2018-05-09T14:23:00.623Z,983.92
2018-05-09T14:24:10.117Z,983.9
2018-05-09T14:25:20.195Z,983.95
2018-05-09T14:26:30.334Z,984.01
2018-05-09T14:27:40.366Z,983.91
2018-05-09T14:28:50.125Z,983.87
2018-05-09T14:30:00.165Z,983.83
2018-05-09T14:31:10.196Z,983.88
2018-05-09T14:32:20.284Z,983.87
2018-05-09T14:33:29.787Z,983.83
2018-05-09T14:34:39.279Z,983.89
2018-05-09T14:35:49.070Z,983.81